sensor_id;sensor_type;location;lat;lon;timestamp;P1;durP1;ratioP1;P2;durP2;ratioP2
61330;SDS011;57640;52.472;-1.950;2023-04-03T00:00:55;1.60;;;1.10;;
61330;SDS011;57640;52.472;-1.950;2023-04-03T00:04:00;1.23;;;0.90;;
61330;SDS011;57640;52.472;-1.950;2023-04-03T00:07:05;1.60;;;1.10;;
61330;SDS011;57640;52.472;-1.950;2023-04-03T00:10:11;1.88;;;1.00;;
61330;SDS011;57640;52.472;-1.950;2023-04-03T00:13:17;1.88;;;1.10;;
61330;SDS011;57640;52.472;-1.950;2023-04-03T00:16:25;1.35;;;0.95;;
61330;SDS011;57640;52.472;-1.950;2023-04-03T00:19:31;1.90;;;1.20;;
61330;SDS011;57640;52.472;-1.950;2023-04-03T00:22:36;1.88;;;1.00;;
61330;SDS011;57640;52.472;-1.950;2023-04-03T00:25:41;1.67;;;1.10;;
61330;SDS011;57640;52.472;-1.950;2023-04-03T00:28:47;1.50;;;0.90;;
61330;SDS011;57640;52.472;-1.950;2023-04-03T00:31:55;1.60;;;1.05;;
61330;SDS011;57640;52.472;-1.950;2023-04-03T00:35:00;1.70;;;1.00;;
61330;SDS011;57640;52.472;-1.950;2023-04-03T00:38:05;1.80;;;1.05;;
61330;SDS011;57640;52.472;-1.950;2023-04-03T00:41:11;1.50;;;1.00;;
61330;SDS011;57640;52.472;-1.950;2023-04-03T00:44:20;2.35;;;1.00;;
61330;SDS011;57640;52.472;-1.950;2023-04-03T00:47:28;1.15;;;0.90;;
61330;SDS011;57640;52.472;-1.950;2023-04-03T00:50:35;1.15;;;0.95;;
61330;SDS011;57640;52.472;-1.950;2023-04-03T00:53:42;2.13;;;1.30;;
61330;SDS011;57640;52.472;-1.950;2023-04-03T00:56:48;2.10;;;1.10;;
61330;SDS011;57640;52.472;-1.950;2023-04-03T00:59:55;2.00;;;1.10;;
61330;SDS011;57640;52.472;-1.950;2023-04-03T01:03:04;1.25;;;1.02;;
61330;SDS011;57640;52.472;-1.950;2023-04-03T01:06:09;1.40;;;1.00;;
61330;SDS011;57640;52.472;-1.950;2023-04-03T01:09:15;1.67;;;1.00;;
61330;SDS011;57640;52.472;-1.950;2023-04-03T01:12:21;1.38;;;1.00;;
61330;SDS011;57640;52.472;-1.950;2023-04-03T01:15:26;1.30;;;0.90;;
61330;SDS011;57640;52.472;-1.950;2023-04-03T01:18:39;1.10;;;0.90;;
61330;SDS011;57640;52.472;-1.950;2023-04-03T01:21:49;1.45;;;1.00;;
61330;SDS011;57640;52.472;-1.950;2023-04-03T01:24:57;1.30;;;1.00;;
61330;SDS011;57640;52.472;-1.950;2023-04-03T01:28:03;1.27;;;0.98;;
61330;SDS011;57640;52.472;-1.950;2023-04-03T01:31:12;2.35;;;1.10;;
61330;SDS011;57640;52.472;-1.950;2023-04-03T01:34:21;1.20;;;0.90;;
61330;SDS011;57640;52.472;-1.950;2023-04-03T01:37:26;2.33;;;1.10;;
61330;SDS011;57640;52.472;-1.950;2023-04-03T01:40:32;1.17;;;0.98;;
61330;SDS011;57640;52.472;-1.950;2023-04-03T01:43:38;1.40;;;0.95;;
61330;SDS011;57640;52.472;-1.950;2023-04-03T01:46:43;1.67;;;1.10;;
61330;SDS011;57640;52.472;-1.950;2023-04-03T01:49:51;1.38;;;1.00;;
61330;SDS011;57640;52.472;-1.950;2023-04-03T01:52:56;1.40;;;1.20;;
61330;SDS011;57640;52.472;-1.950;2023-04-03T01:56:02;1.60;;;1.27;;
61330;SDS011;57640;52.472;-1.950;2023-04-03T01:59:07;1.40;;;1.13;;
61330;SDS011;57640;52.472;-1.950;2023-04-03T02:02:13;1.08;;;0.98;;
61330;SDS011;57640;52.472;-1.950;2023-04-03T02:05:21;1.77;;;1.20;;
61330;SDS011;57640;52.472;-1.950;2023-04-03T02:08:27;1.50;;;1.08;;
61330;SDS011;57640;52.472;-1.950;2023-04-03T02:11:32;1.30;;;0.90;;
61330;SDS011;57640;52.472;-1.950;2023-04-03T02:14:37;1.20;;;1.00;;
61330;SDS011;57640;52.472;-1.950;2023-04-03T02:17:43;1.33;;;0.93;;
61330;SDS011;57640;52.472;-1.950;2023-04-03T02:20:51;0.98;;;0.75;;
61330;SDS011;57640;52.472;-1.950;2023-04-03T02:23:56;1.23;;;1.00;;
61330;SDS011;57640;52.472;-1.950;2023-04-03T02:27:02;1.20;;;1.10;;
61330;SDS011;57640;52.472;-1.950;2023-04-03T02:30:07;1.02;;;0.93;;
61330;SDS011;57640;52.472;-1.950;2023-04-03T02:33:13;1.35;;;1.17;;
61330;SDS011;57640;52.472;-1.950;2023-04-03T02:36:21;1.25;;;1.15;;
61330;SDS011;57640;52.472;-1.950;2023-04-03T02:39:26;1.35;;;1.10;;
61330;SDS011;57640;52.472;-1.950;2023-04-03T02:42:32;1.33;;;1.13;;
61330;SDS011;57640;52.472;-1.950;2023-04-03T02:45:37;1.63;;;1.02;;
61330;SDS011;57640;52.472;-1.950;2023-04-03T02:48:43;1.35;;;1.00;;
61330;SDS011;57640;52.472;-1.950;2023-04-03T02:51:51;1.30;;;0.88;;
61330;SDS011;57640;52.472;-1.950;2023-04-03T02:54:56;1.50;;;1.03;;
61330;SDS011;57640;52.472;-1.950;2023-04-03T02:58:01;1.15;;;1.00;;
61330;SDS011;57640;52.472;-1.950;2023-04-03T03:01:07;2.10;;;1.15;;
61330;SDS011;57640;52.472;-1.950;2023-04-03T03:04:12;1.00;;;0.90;;
61330;SDS011;57640;52.472;-1.950;2023-04-03T03:07:20;1.50;;;1.02;;
61330;SDS011;57640;52.472;-1.950;2023-04-03T03:10:25;1.27;;;1.08;;
61330;SDS011;57640;52.472;-1.950;2023-04-03T03:13:31;1.65;;;1.10;;
61330;SDS011;57640;52.472;-1.950;2023-04-03T03:16:36;1.42;;;1.05;;
61330;SDS011;57640;52.472;-1.950;2023-04-03T03:19:42;2.50;;;1.17;;
61330;SDS011;57640;52.472;-1.950;2023-04-03T03:22:50;1.50;;;1.10;;
61330;SDS011;57640;52.472;-1.950;2023-04-03T03:25:56;1.27;;;0.97;;
61330;SDS011;57640;52.472;-1.950;2023-04-03T03:29:01;1.15;;;0.90;;
61330;SDS011;57640;52.472;-1.950;2023-04-03T03:32:07;1.70;;;1.10;;
61330;SDS011;57640;52.472;-1.950;2023-04-03T03:35:12;1.48;;;1.10;;
61330;SDS011;57640;52.472;-1.950;2023-04-03T03:38:20;1.52;;;1.10;;
61330;SDS011;57640;52.472;-1.950;2023-04-03T03:41:25;1.27;;;0.95;;
61330;SDS011;57640;52.472;-1.950;2023-04-03T03:44:31;1.20;;;1.10;;
61330;SDS011;57640;52.472;-1.950;2023-04-03T03:47:36;1.42;;;1.13;;
61330;SDS011;57640;52.472;-1.950;2023-04-03T03:50:42;1.13;;;0.93;;
61330;SDS011;57640;52.472;-1.950;2023-04-03T03:53:50;1.90;;;1.17;;
61330;SDS011;57640;52.472;-1.950;2023-04-03T03:56:55;2.08;;;1.20;;
61330;SDS011;57640;52.472;-1.950;2023-04-03T04:00:01;1.40;;;1.10;;
61330;SDS011;57640;52.472;-1.950;2023-04-03T04:03:06;1.73;;;1.00;;
61330;SDS011;57640;52.472;-1.950;2023-04-03T04:06:11;1.45;;;1.00;;
61330;SDS011;57640;52.472;-1.950;2023-04-03T04:09:19;1.60;;;1.20;;
61330;SDS011;57640;52.472;-1.950;2023-04-03T04:12:24;1.50;;;1.00;;
61330;SDS011;57640;52.472;-1.950;2023-04-03T04:15:30;1.42;;;1.00;;
61330;SDS011;57640;52.472;-1.950;2023-04-03T04:18:36;1.20;;;0.93;;
61330;SDS011;57640;52.472;-1.950;2023-04-03T04:21:41;1.10;;;0.90;;
61330;SDS011;57640;52.472;-1.950;2023-04-03T04:24:49;1.50;;;1.00;;
61330;SDS011;57640;52.472;-1.950;2023-04-03T04:27:54;1.63;;;1.20;;
61330;SDS011;57640;52.472;-1.950;2023-04-03T04:30:59;1.25;;;0.90;;
61330;SDS011;57640;52.472;-1.950;2023-04-03T04:34:05;1.20;;;0.90;;
61330;SDS011;57640;52.472;-1.950;2023-04-03T04:37:10;1.50;;;1.20;;
61330;SDS011;57640;52.472;-1.950;2023-04-03T04:40:18;1.25;;;1.02;;
61330;SDS011;57640;52.472;-1.950;2023-04-03T04:43:23;1.27;;;1.05;;
61330;SDS011;57640;52.472;-1.950;2023-04-03T04:46:29;2.00;;;1.00;;
61330;SDS011;57640;52.472;-1.950;2023-04-03T04:49:34;0.70;;;0.70;;
61330;SDS011;57640;52.472;-1.950;2023-04-03T04:52:39;1.40;;;1.00;;
61330;SDS011;57640;52.472;-1.950;2023-04-03T04:55:47;1.20;;;0.90;;
61330;SDS011;57640;52.472;-1.950;2023-04-03T04:58:52;1.50;;;1.00;;
61330;SDS011;57640;52.472;-1.950;2023-04-03T05:01:58;1.38;;;1.00;;
61330;SDS011;57640;52.472;-1.950;2023-04-03T05:05:03;1.95;;;1.05;;
61330;SDS011;57640;52.472;-1.950;2023-04-03T05:08:09;1.25;;;0.90;;
61330;SDS011;57640;52.472;-1.950;2023-04-03T05:11:17;2.22;;;1.00;;
61330;SDS011;57640;52.472;-1.950;2023-04-03T05:14:23;1.20;;;0.90;;
61330;SDS011;57640;52.472;-1.950;2023-04-03T05:17:28;1.02;;;0.82;;
61330;SDS011;57640;52.472;-1.950;2023-04-03T05:20:33;1.48;;;0.95;;
61330;SDS011;57640;52.472;-1.950;2023-04-03T05:23:39;1.67;;;0.98;;
61330;SDS011;57640;52.472;-1.950;2023-04-03T05:26:47;1.35;;;1.10;;
61330;SDS011;57640;52.472;-1.950;2023-04-03T05:29:52;1.10;;;1.00;;
61330;SDS011;57640;52.472;-1.950;2023-04-03T05:32:58;1.20;;;1.08;;
61330;SDS011;57640;52.472;-1.950;2023-04-03T05:36:03;1.30;;;0.90;;
61330;SDS011;57640;52.472;-1.950;2023-04-03T05:39:09;1.20;;;1.00;;
61330;SDS011;57640;52.472;-1.950;2023-04-03T05:42:17;1.50;;;1.05;;
61330;SDS011;57640;52.472;-1.950;2023-04-03T05:45:22;1.17;;;1.00;;
61330;SDS011;57640;52.472;-1.950;2023-04-03T05:48:27;1.10;;;0.90;;
61330;SDS011;57640;52.472;-1.950;2023-04-03T05:51:34;1.23;;;0.95;;
61330;SDS011;57640;52.472;-1.950;2023-04-03T05:54:39;2.13;;;1.00;;
61330;SDS011;57640;52.472;-1.950;2023-04-03T05:57:47;0.93;;;0.80;;
61330;SDS011;57640;52.472;-1.950;2023-04-03T06:00:53;1.60;;;1.00;;
61330;SDS011;57640;52.472;-1.950;2023-04-03T06:03:58;1.42;;;1.00;;
61330;SDS011;57640;52.472;-1.950;2023-04-03T06:07:05;1.70;;;1.00;;
61330;SDS011;57640;52.472;-1.950;2023-04-03T06:10:11;1.40;;;0.90;;
61330;SDS011;57640;52.472;-1.950;2023-04-03T06:13:19;1.70;;;1.00;;
61330;SDS011;57640;52.472;-1.950;2023-04-03T06:16:24;1.20;;;0.90;;
61330;SDS011;57640;52.472;-1.950;2023-04-03T06:19:29;1.02;;;0.90;;
61330;SDS011;57640;52.472;-1.950;2023-04-03T06:22:35;1.20;;;0.93;;
61330;SDS011;57640;52.472;-1.950;2023-04-03T06:25:40;1.60;;;0.80;;
61330;SDS011;57640;52.472;-1.950;2023-04-03T06:28:48;1.20;;;0.90;;
61330;SDS011;57640;52.472;-1.950;2023-04-03T06:31:53;0.80;;;0.80;;
61330;SDS011;57640;52.472;-1.950;2023-04-03T06:34:59;1.15;;;0.80;;
61330;SDS011;57640;52.472;-1.950;2023-04-03T06:38:04;1.40;;;1.00;;
61330;SDS011;57640;52.472;-1.950;2023-04-03T06:41:11;1.00;;;0.80;;
61330;SDS011;57640;52.472;-1.950;2023-04-03T06:44:19;1.38;;;0.98;;
61330;SDS011;57640;52.472;-1.950;2023-04-03T06:47:25;1.23;;;0.90;;
61330;SDS011;57640;52.472;-1.950;2023-04-03T06:50:30;1.20;;;0.93;;
61330;SDS011;57640;52.472;-1.950;2023-04-03T06:53:35;2.45;;;1.00;;
61330;SDS011;57640;52.472;-1.950;2023-04-03T06:56:40;1.00;;;0.90;;
61330;SDS011;57640;52.472;-1.950;2023-04-03T06:59:48;2.33;;;1.10;;
61330;SDS011;57640;52.472;-1.950;2023-04-03T07:02:54;1.25;;;1.00;;
61330;SDS011;57640;52.472;-1.950;2023-04-03T07:05:59;1.33;;;1.00;;
61330;SDS011;57640;52.472;-1.950;2023-04-03T07:09:05;1.10;;;0.90;;
61330;SDS011;57640;52.472;-1.950;2023-04-03T07:12:10;1.85;;;1.00;;
61330;SDS011;57640;52.472;-1.950;2023-04-03T07:15:18;0.88;;;0.80;;
61330;SDS011;57640;52.472;-1.950;2023-04-03T07:18:24;1.83;;;1.10;;
61330;SDS011;57640;52.472;-1.950;2023-04-03T07:21:29;1.55;;;0.90;;
61330;SDS011;57640;52.472;-1.950;2023-04-03T07:24:35;1.13;;;0.88;;
61330;SDS011;57640;52.472;-1.950;2023-04-03T07:27:40;1.92;;;1.25;;
61330;SDS011;57640;52.472;-1.950;2023-04-03T07:30:49;1.35;;;0.80;;
61330;SDS011;57640;52.472;-1.950;2023-04-03T07:33:54;1.42;;;0.90;;
61330;SDS011;57640;52.472;-1.950;2023-04-03T07:36:59;1.13;;;0.90;;
61330;SDS011;57640;52.472;-1.950;2023-04-03T07:40:06;1.00;;;0.80;;
61330;SDS011;57640;52.472;-1.950;2023-04-03T07:43:12;1.60;;;0.90;;
61330;SDS011;57640;52.472;-1.950;2023-04-03T07:46:20;0.95;;;0.70;;
61330;SDS011;57640;52.472;-1.950;2023-04-03T07:49:25;1.90;;;0.88;;
61330;SDS011;57640;52.472;-1.950;2023-04-03T07:52:31;0.93;;;0.80;;
61330;SDS011;57640;52.472;-1.950;2023-04-03T07:55:36;2.33;;;1.05;;
61330;SDS011;57640;52.472;-1.950;2023-04-03T08:01:53;0.80;;;0.80;;
61330;SDS011;57640;52.472;-1.950;2023-04-03T08:04:58;1.17;;;0.85;;
61330;SDS011;57640;52.472;-1.950;2023-04-03T08:08:03;1.10;;;0.82;;
61330;SDS011;57640;52.472;-1.950;2023-04-03T08:11:12;1.10;;;0.73;;
61330;SDS011;57640;52.472;-1.950;2023-04-03T08:14:17;1.27;;;1.00;;
61330;SDS011;57640;52.472;-1.950;2023-04-03T08:17:25;1.08;;;0.70;;
61330;SDS011;57640;52.472;-1.950;2023-04-03T08:20:30;1.17;;;0.88;;
61330;SDS011;57640;52.472;-1.950;2023-04-03T08:23:36;1.27;;;0.70;;
61330;SDS011;57640;52.472;-1.950;2023-04-03T08:26:41;1.17;;;0.80;;
61330;SDS011;57640;52.472;-1.950;2023-04-03T08:29:47;1.65;;;1.00;;
61330;SDS011;57640;52.472;-1.950;2023-04-03T08:32:55;1.05;;;0.80;;
61330;SDS011;57640;52.472;-1.950;2023-04-03T08:36:00;1.00;;;0.80;;
61330;SDS011;57640;52.472;-1.950;2023-04-03T08:39:06;1.00;;;0.80;;
61330;SDS011;57640;52.472;-1.950;2023-04-03T08:42:14;1.10;;;0.90;;
61330;SDS011;57640;52.472;-1.950;2023-04-03T08:45:21;1.00;;;0.82;;
61330;SDS011;57640;52.472;-1.950;2023-04-03T08:48:33;1.45;;;0.90;;
61330;SDS011;57640;52.472;-1.950;2023-04-03T08:51:40;1.20;;;0.82;;
61330;SDS011;57640;52.472;-1.950;2023-04-03T08:54:50;0.88;;;0.70;;
61330;SDS011;57640;52.472;-1.950;2023-04-03T08:57:58;1.17;;;0.85;;
61330;SDS011;57640;52.472;-1.950;2023-04-03T09:01:05;1.23;;;0.90;;
61330;SDS011;57640;52.472;-1.950;2023-04-03T09:04:13;1.40;;;0.90;;
61330;SDS011;57640;52.472;-1.950;2023-04-03T09:07:22;2.05;;;0.77;;
61330;SDS011;57640;52.472;-1.950;2023-04-03T09:10:32;1.95;;;0.98;;
61330;SDS011;57640;52.472;-1.950;2023-04-03T09:13:40;1.10;;;0.88;;
61330;SDS011;57640;52.472;-1.950;2023-04-03T09:16:48;0.90;;;0.70;;
61330;SDS011;57640;52.472;-1.950;2023-04-03T09:19:58;1.00;;;0.90;;
61330;SDS011;57640;52.472;-1.950;2023-04-03T09:23:11;0.80;;;0.80;;
61330;SDS011;57640;52.472;-1.950;2023-04-03T09:26:18;1.17;;;0.90;;
61330;SDS011;57640;52.472;-1.950;2023-04-03T09:29:25;1.02;;;0.73;;
61330;SDS011;57640;52.472;-1.950;2023-04-03T09:32:31;1.40;;;0.90;;
61330;SDS011;57640;52.472;-1.950;2023-04-03T09:35:40;1.23;;;0.80;;
61330;SDS011;57640;52.472;-1.950;2023-04-03T09:41:55;1.85;;;0.90;;
61330;SDS011;57640;52.472;-1.950;2023-04-03T09:45:01;1.25;;;0.85;;
61330;SDS011;57640;52.472;-1.950;2023-04-03T09:48:08;1.40;;;0.90;;
61330;SDS011;57640;52.472;-1.950;2023-04-03T09:51:16;1.20;;;0.80;;
61330;SDS011;57640;52.472;-1.950;2023-04-03T09:54:26;1.00;;;0.90;;
61330;SDS011;57640;52.472;-1.950;2023-04-03T09:57:35;0.60;;;0.60;;
61330;SDS011;57640;52.472;-1.950;2023-04-03T10:00:40;1.05;;;0.63;;
61330;SDS011;57640;52.472;-1.950;2023-04-03T10:03:46;1.83;;;1.05;;
61330;SDS011;57640;52.472;-1.950;2023-04-03T10:10:29;2.47;;;1.00;;
61330;SDS011;57640;52.472;-1.950;2023-04-03T10:13:35;1.55;;;1.00;;
61330;SDS011;57640;52.472;-1.950;2023-04-03T10:16:41;0.70;;;0.70;;
61330;SDS011;57640;52.472;-1.950;2023-04-03T10:19:49;0.90;;;0.73;;
61330;SDS011;57640;52.472;-1.950;2023-04-03T10:23:01;1.20;;;0.90;;
61330;SDS011;57640;52.472;-1.950;2023-04-03T10:26:12;1.05;;;0.75;;
61330;SDS011;57640;52.472;-1.950;2023-04-03T10:29:25;0.82;;;0.77;;
61330;SDS011;57640;52.472;-1.950;2023-04-03T10:32:45;1.38;;;0.93;;
61330;SDS011;57640;52.472;-1.950;2023-04-03T10:35:56;1.48;;;0.80;;
61330;SDS011;57640;52.472;-1.950;2023-04-03T10:39:06;1.88;;;0.80;;
61330;SDS011;57640;52.472;-1.950;2023-04-03T10:42:18;1.27;;;0.80;;
61330;SDS011;57640;52.472;-1.950;2023-04-03T10:45:24;0.90;;;0.80;;
61330;SDS011;57640;52.472;-1.950;2023-04-03T10:48:37;1.13;;;0.77;;
61330;SDS011;57640;52.472;-1.950;2023-04-03T10:51:45;3.00;;;1.20;;
61330;SDS011;57640;52.472;-1.950;2023-04-03T10:54:55;0.98;;;0.80;;
61330;SDS011;57640;52.472;-1.950;2023-04-03T10:58:05;0.90;;;0.80;;
61330;SDS011;57640;52.472;-1.950;2023-04-03T11:01:11;1.30;;;0.80;;
61330;SDS011;57640;52.472;-1.950;2023-04-03T11:04:18;0.90;;;0.70;;
61330;SDS011;57640;52.472;-1.950;2023-04-03T11:07:24;1.33;;;1.00;;
61330;SDS011;57640;52.472;-1.950;2023-04-03T11:10:35;1.83;;;0.90;;
61330;SDS011;57640;52.472;-1.950;2023-04-03T11:13:45;1.00;;;0.80;;
61330;SDS011;57640;52.472;-1.950;2023-04-03T11:16:53;1.02;;;0.80;;
61330;SDS011;57640;52.472;-1.950;2023-04-03T11:20:04;1.17;;;0.70;;
61330;SDS011;57640;52.472;-1.950;2023-04-03T11:23:13;1.35;;;0.90;;
61330;SDS011;57640;52.472;-1.950;2023-04-03T11:26:22;1.27;;;0.70;;
61330;SDS011;57640;52.472;-1.950;2023-04-03T11:29:34;1.00;;;0.82;;
61330;SDS011;57640;52.472;-1.950;2023-04-03T11:36:00;1.23;;;0.80;;
61330;SDS011;57640;52.472;-1.950;2023-04-03T11:39:10;1.58;;;0.80;;
61330;SDS011;57640;52.472;-1.950;2023-04-03T11:42:24;1.55;;;0.80;;
61330;SDS011;57640;52.472;-1.950;2023-04-03T11:45:37;0.75;;;0.63;;
61330;SDS011;57640;52.472;-1.950;2023-04-03T11:51:58;1.38;;;0.80;;
61330;SDS011;57640;52.472;-1.950;2023-04-03T11:55:09;1.20;;;0.80;;
61330;SDS011;57640;52.472;-1.950;2023-04-03T11:58:32;0.77;;;0.77;;
61330;SDS011;57640;52.472;-1.950;2023-04-03T12:01:47;0.93;;;0.80;;
61330;SDS011;57640;52.472;-1.950;2023-04-03T12:08:22;0.90;;;0.73;;
61330;SDS011;57640;52.472;-1.950;2023-04-03T12:11:30;0.65;;;0.57;;
61330;SDS011;57640;52.472;-1.950;2023-04-03T12:14:35;1.63;;;0.80;;
61330;SDS011;57640;52.472;-1.950;2023-04-03T12:17:43;1.00;;;0.73;;
61330;SDS011;57640;52.472;-1.950;2023-04-03T12:20:53;0.95;;;0.68;;
61330;SDS011;57640;52.472;-1.950;2023-04-03T12:24:02;1.35;;;0.90;;
61330;SDS011;57640;52.472;-1.950;2023-04-03T12:27:21;0.90;;;0.80;;
61330;SDS011;57640;52.472;-1.950;2023-04-03T12:33:37;0.70;;;0.65;;
61330;SDS011;57640;52.472;-1.950;2023-04-03T12:36:47;0.80;;;0.75;;
61330;SDS011;57640;52.472;-1.950;2023-04-03T12:39:56;1.45;;;1.00;;
61330;SDS011;57640;52.472;-1.950;2023-04-03T12:43:12;1.00;;;0.80;;
61330;SDS011;57640;52.472;-1.950;2023-04-03T12:46:21;1.13;;;0.70;;
61330;SDS011;57640;52.472;-1.950;2023-04-03T12:49:35;1.30;;;0.77;;
61330;SDS011;57640;52.472;-1.950;2023-04-03T12:52:42;1.08;;;0.60;;
61330;SDS011;57640;52.472;-1.950;2023-04-03T12:55:53;0.70;;;0.70;;
61330;SDS011;57640;52.472;-1.950;2023-04-03T12:59:12;0.82;;;0.70;;
61330;SDS011;57640;52.472;-1.950;2023-04-03T13:02:22;0.60;;;0.60;;
61330;SDS011;57640;52.472;-1.950;2023-04-03T13:05:31;1.67;;;0.80;;
61330;SDS011;57640;52.472;-1.950;2023-04-03T13:08:36;1.63;;;0.80;;
61330;SDS011;57640;52.472;-1.950;2023-04-03T13:11:41;0.98;;;0.88;;
61330;SDS011;57640;52.472;-1.950;2023-04-03T13:14:51;1.02;;;0.80;;
61330;SDS011;57640;52.472;-1.950;2023-04-03T13:17:56;2.17;;;0.95;;
61330;SDS011;57640;52.472;-1.950;2023-04-03T13:21:05;1.10;;;1.00;;
61330;SDS011;57640;52.472;-1.950;2023-04-03T13:24:12;1.10;;;0.82;;
61330;SDS011;57640;52.472;-1.950;2023-04-03T13:27:18;0.75;;;0.68;;
61330;SDS011;57640;52.472;-1.950;2023-04-03T13:30:26;1.05;;;0.80;;
61330;SDS011;57640;52.472;-1.950;2023-04-03T13:33:32;1.10;;;0.80;;
61330;SDS011;57640;52.472;-1.950;2023-04-03T13:36:43;1.33;;;1.08;;
61330;SDS011;57640;52.472;-1.950;2023-04-03T13:39:59;1.40;;;0.80;;
61330;SDS011;57640;52.472;-1.950;2023-04-03T13:43:06;0.70;;;0.60;;
61330;SDS011;57640;52.472;-1.950;2023-04-03T13:46:25;1.35;;;0.90;;
61330;SDS011;57640;52.472;-1.950;2023-04-03T13:49:32;0.85;;;0.70;;
61330;SDS011;57640;52.472;-1.950;2023-04-03T13:52:42;0.70;;;0.60;;
61330;SDS011;57640;52.472;-1.950;2023-04-03T13:55:53;1.13;;;0.60;;
61330;SDS011;57640;52.472;-1.950;2023-04-03T13:59:19;1.13;;;0.82;;
61330;SDS011;57640;52.472;-1.950;2023-04-03T14:02:29;0.90;;;0.70;;
61330;SDS011;57640;52.472;-1.950;2023-04-03T14:05:35;1.30;;;0.90;;
61330;SDS011;57640;52.472;-1.950;2023-04-03T14:08:43;1.48;;;0.90;;
61330;SDS011;57640;52.472;-1.950;2023-04-03T14:11:49;0.88;;;0.70;;
61330;SDS011;57640;52.472;-1.950;2023-04-03T14:14:56;1.25;;;0.80;;
61330;SDS011;57640;52.472;-1.950;2023-04-03T14:18:02;1.17;;;0.77;;
61330;SDS011;57640;52.472;-1.950;2023-04-03T14:21:08;0.80;;;0.60;;
61330;SDS011;57640;52.472;-1.950;2023-04-03T14:24:16;0.98;;;0.70;;
61330;SDS011;57640;52.472;-1.950;2023-04-03T14:27:23;1.10;;;1.00;;
61330;SDS011;57640;52.472;-1.950;2023-04-03T14:30:30;1.48;;;0.80;;
61330;SDS011;57640;52.472;-1.950;2023-04-03T14:33:36;1.02;;;0.70;;
61330;SDS011;57640;52.472;-1.950;2023-04-03T14:36:43;0.95;;;0.75;;
61330;SDS011;57640;52.472;-1.950;2023-04-03T14:39:52;0.52;;;0.50;;
61330;SDS011;57640;52.472;-1.950;2023-04-03T14:46:03;1.30;;;0.90;;
61330;SDS011;57640;52.472;-1.950;2023-04-03T14:49:10;0.93;;;0.70;;
61330;SDS011;57640;52.472;-1.950;2023-04-03T14:55:25;0.80;;;0.70;;
61330;SDS011;57640;52.472;-1.950;2023-04-03T14:58:30;0.90;;;0.60;;
61330;SDS011;57640;52.472;-1.950;2023-04-03T15:01:38;1.20;;;0.70;;
61330;SDS011;57640;52.472;-1.950;2023-04-03T15:04:43;1.42;;;0.77;;
61330;SDS011;57640;52.472;-1.950;2023-04-03T15:07:49;0.63;;;0.60;;
61330;SDS011;57640;52.472;-1.950;2023-04-03T15:10:58;0.50;;;0.43;;
61330;SDS011;57640;52.472;-1.950;2023-04-03T15:14:03;1.25;;;0.60;;
61330;SDS011;57640;52.472;-1.950;2023-04-03T15:17:10;0.98;;;0.60;;
61330;SDS011;57640;52.472;-1.950;2023-04-03T15:20:19;1.25;;;0.80;;
61330;SDS011;57640;52.472;-1.950;2023-04-03T15:23:26;0.95;;;0.70;;
61330;SDS011;57640;52.472;-1.950;2023-04-03T15:26:34;0.77;;;0.60;;
61330;SDS011;57640;52.472;-1.950;2023-04-03T15:29:40;0.93;;;0.60;;
61330;SDS011;57640;52.472;-1.950;2023-04-03T15:32:46;0.60;;;0.50;;
61330;SDS011;57640;52.472;-1.950;2023-04-03T15:35:52;0.88;;;0.60;;
61330;SDS011;57640;52.472;-1.950;2023-04-03T15:38:57;1.02;;;0.70;;
61330;SDS011;57640;52.472;-1.950;2023-04-03T15:42:05;0.63;;;0.60;;
61330;SDS011;57640;52.472;-1.950;2023-04-03T15:45:11;0.65;;;0.50;;
61330;SDS011;57640;52.472;-1.950;2023-04-03T15:48:16;0.82;;;0.52;;
61330;SDS011;57640;52.472;-1.950;2023-04-03T15:51:21;1.13;;;0.70;;
61330;SDS011;57640;52.472;-1.950;2023-04-03T15:54:27;1.02;;;0.70;;
61330;SDS011;57640;52.472;-1.950;2023-04-03T15:57:35;0.52;;;0.50;;
61330;SDS011;57640;52.472;-1.950;2023-04-03T16:00:40;1.00;;;0.70;;
61330;SDS011;57640;52.472;-1.950;2023-04-03T16:03:46;0.50;;;0.50;;
61330;SDS011;57640;52.472;-1.950;2023-04-03T16:06:51;0.60;;;0.50;;
61330;SDS011;57640;52.472;-1.950;2023-04-03T16:09:57;1.02;;;0.60;;
61330;SDS011;57640;52.472;-1.950;2023-04-03T16:13:05;0.80;;;0.60;;
61330;SDS011;57640;52.472;-1.950;2023-04-03T16:16:10;0.68;;;0.50;;
61330;SDS011;57640;52.472;-1.950;2023-04-03T16:19:15;0.98;;;0.70;;
61330;SDS011;57640;52.472;-1.950;2023-04-03T16:22:21;0.80;;;0.60;;
61330;SDS011;57640;52.472;-1.950;2023-04-03T16:25:27;0.75;;;0.60;;
61330;SDS011;57640;52.472;-1.950;2023-04-03T16:28:35;0.82;;;0.60;;
61330;SDS011;57640;52.472;-1.950;2023-04-03T16:31:41;1.35;;;0.93;;
61330;SDS011;57640;52.472;-1.950;2023-04-03T16:34:47;1.00;;;0.77;;
61330;SDS011;57640;52.472;-1.950;2023-04-03T16:37:52;0.82;;;0.70;;
61330;SDS011;57640;52.472;-1.950;2023-04-03T16:40:58;0.60;;;0.60;;
61330;SDS011;57640;52.472;-1.950;2023-04-03T16:44:09;0.80;;;0.70;;
61330;SDS011;57640;52.472;-1.950;2023-04-03T16:47:14;0.50;;;0.50;;
61330;SDS011;57640;52.472;-1.950;2023-04-03T16:50:21;0.43;;;0.43;;
61330;SDS011;57640;52.472;-1.950;2023-04-03T16:53:26;0.55;;;0.55;;
61330;SDS011;57640;52.472;-1.950;2023-04-03T16:56:32;0.65;;;0.60;;
61330;SDS011;57640;52.472;-1.950;2023-04-03T16:59:40;0.60;;;0.50;;
61330;SDS011;57640;52.472;-1.950;2023-04-03T17:02:45;0.65;;;0.60;;
61330;SDS011;57640;52.472;-1.950;2023-04-03T17:05:51;1.10;;;0.73;;
61330;SDS011;57640;52.472;-1.950;2023-04-03T17:08:56;0.95;;;0.70;;
61330;SDS011;57640;52.472;-1.950;2023-04-03T17:12:01;0.63;;;0.60;;
61330;SDS011;57640;52.472;-1.950;2023-04-03T17:15:10;1.23;;;0.60;;
61330;SDS011;57640;52.472;-1.950;2023-04-03T17:18:15;0.50;;;0.50;;
61330;SDS011;57640;52.472;-1.950;2023-04-03T17:21:21;1.00;;;0.70;;
61330;SDS011;57640;52.472;-1.950;2023-04-03T17:24:26;0.60;;;0.60;;
61330;SDS011;57640;52.472;-1.950;2023-04-03T17:27:32;0.85;;;0.52;;
61330;SDS011;57640;52.472;-1.950;2023-04-03T17:30:40;0.50;;;0.50;;
61330;SDS011;57640;52.472;-1.950;2023-04-03T17:33:45;0.85;;;0.57;;
61330;SDS011;57640;52.472;-1.950;2023-04-03T17:36:51;0.70;;;0.50;;
61330;SDS011;57640;52.472;-1.950;2023-04-03T17:39:56;0.88;;;0.65;;
61330;SDS011;57640;52.472;-1.950;2023-04-03T17:43:01;0.95;;;0.60;;
61330;SDS011;57640;52.472;-1.950;2023-04-03T17:46:09;0.52;;;0.52;;
61330;SDS011;57640;52.472;-1.950;2023-04-03T17:49:15;1.27;;;0.90;;
61330;SDS011;57640;52.472;-1.950;2023-04-03T17:52:21;1.05;;;0.80;;
61330;SDS011;57640;52.472;-1.950;2023-04-03T17:55:29;0.80;;;0.70;;
61330;SDS011;57640;52.472;-1.950;2023-04-03T17:58:35;0.50;;;0.50;;
61330;SDS011;57640;52.472;-1.950;2023-04-03T18:01:43;1.67;;;0.75;;
61330;SDS011;57640;52.472;-1.950;2023-04-03T18:04:49;0.63;;;0.57;;
61330;SDS011;57640;52.472;-1.950;2023-04-03T18:07:55;0.88;;;0.73;;
61330;SDS011;57640;52.472;-1.950;2023-04-03T18:11:01;1.23;;;0.65;;
61330;SDS011;57640;52.472;-1.950;2023-04-03T18:14:07;1.00;;;0.70;;
61330;SDS011;57640;52.472;-1.950;2023-04-03T18:17:15;1.23;;;0.70;;
61330;SDS011;57640;52.472;-1.950;2023-04-03T18:20:21;1.20;;;0.68;;
61330;SDS011;57640;52.472;-1.950;2023-04-03T18:23:26;0.50;;;0.50;;
61330;SDS011;57640;52.472;-1.950;2023-04-03T18:26:32;0.60;;;0.50;;
61330;SDS011;57640;52.472;-1.950;2023-04-03T18:29:38;0.60;;;0.60;;
61330;SDS011;57640;52.472;-1.950;2023-04-03T18:32:47;1.33;;;0.70;;
61330;SDS011;57640;52.472;-1.950;2023-04-03T18:35:52;0.45;;;0.45;;
61330;SDS011;57640;52.472;-1.950;2023-04-03T18:38:57;1.08;;;0.65;;
61330;SDS011;57640;52.472;-1.950;2023-04-03T18:42:04;1.55;;;0.65;;
61330;SDS011;57640;52.472;-1.950;2023-04-03T18:45:10;1.35;;;0.80;;
61330;SDS011;57640;52.472;-1.950;2023-04-03T18:48:19;1.15;;;0.80;;
61330;SDS011;57640;52.472;-1.950;2023-04-03T18:51:25;0.70;;;0.50;;
61330;SDS011;57640;52.472;-1.950;2023-04-03T18:54:31;0.65;;;0.65;;
61330;SDS011;57640;52.472;-1.950;2023-04-03T18:57:38;0.77;;;0.60;;